createdAt,value
2017-06-02T02:04:32.325Z,13.53
2017-06-02T02:05:12.927Z,13.53
2017-06-02T02:05:53.576Z,13.5
2017-06-02T02:06:34.246Z,13.49
2017-06-02T02:07:14.832Z,13.47
2017-06-02T02:07:55.452Z,13.46
2017-06-02T02:08:36.110Z,13.47
2017-06-02T02:09:16.822Z,13.41
2017-06-02T02:09:57.478Z,13.38
2017-06-02T02:10:38.227Z,13.39
2017-06-02T02:11:19.897Z,13.46
2017-06-02T02:12:00.603Z,13.44
2017-06-02T02:12:41.204Z,13.47
2017-06-02T02:13:21.876Z,13.42
2017-06-02T02:14:03.609Z,13.41
2017-06-02T02:14:44.206Z,13.35
2017-06-02T02:15:24.824Z,13.38
2017-06-02T02:16:06.450Z,13.38
2017-06-02T02:16:47.085Z,13.38
2017-06-02T02:17:27.698Z,13.3
2017-06-02T02:18:08.371Z,13.28
2017-06-02T02:18:49.034Z,13.31
2017-06-02T02:19:29.671Z,13.33
2017-06-02T02:20:10.361Z,13.31
2017-06-02T02:20:51.079Z,13.31
2017-06-02T02:21:31.745Z,13.3
2017-06-02T02:22:12.404Z,13.3
2017-06-02T02:22:53.085Z,13.23
2017-06-02T02:23:33.710Z,13.33
2017-06-02T02:24:14.313Z,13.27
2017-06-02T02:24:56.007Z,13.3
2017-06-02T02:25:36.662Z,13.31
2017-06-02T02:26:17.351Z,13.28
2017-06-02T02:26:58.060Z,13.27
2017-06-02T02:27:38.818Z,13.27
2017-06-02T02:28:19.444Z,13.25
2017-06-02T02:29:00.137Z,13.27
2017-06-02T02:29:40.835Z,13.27
2017-06-02T02:30:21.536Z,13.25
2017-06-02T02:31:03.272Z,13.23
2017-06-02T02:31:44.912Z,13.27
2017-06-02T02:32:26.598Z,13.25
2017-06-02T02:33:07.280Z,13.2
2017-06-02T02:33:48.936Z,13.27
2017-06-02T02:34:29.574Z,13.27
2017-06-02T02:35:10.259Z,13.13
2017-06-02T02:35:50.974Z,13.18
2017-06-02T02:36:31.666Z,13.13
2017-06-02T02:37:12.308Z,13.13
2017-06-02T02:37:54.122Z,13.27
2017-06-02T02:38:34.726Z,13.25
2017-06-02T02:39:15.376Z,13.15
2017-06-02T02:39:56.091Z,13.16
2017-06-02T02:40:36.769Z,13.13
2017-06-02T02:41:17.376Z,13.27
2017-06-02T02:41:59.147Z,13.13
2017-06-02T02:42:41.826Z,13.13
2017-06-02T02:43:22.608Z,13.13
2017-06-02T02:44:03.244Z,13.12
2017-06-02T02:44:43.886Z,13.13
2017-06-02T02:45:24.556Z,13.09
2017-06-02T02:46:05.325Z,13.12
2017-06-02T02:46:45.966Z,13.05
2017-06-02T02:47:26.723Z,13.05
2017-06-02T02:48:07.381Z,13.08
2017-06-02T02:48:48.104Z,12.95
2017-06-02T02:49:28.753Z,12.97
2017-06-02T02:50:09.438Z,12.97
2017-06-02T02:50:50.186Z,12.95
2017-06-02T02:51:30.936Z,12.95
2017-06-02T02:52:11.610Z,12.98
2017-06-02T02:52:52.180Z,12.98
2017-06-02T02:53:32.946Z,13.04
2017-06-02T02:54:13.577Z,12.94
2017-06-02T02:54:54.226Z,12.95
2017-06-02T02:55:34.944Z,13.01
2017-06-02T02:56:15.749Z,13.01
2017-06-02T02:56:56.344Z,13.03
2017-06-02T02:57:37.091Z,12.98
2017-06-02T02:58:17.889Z,12.95
2017-06-02T02:58:58.711Z,12.9
2017-06-02T02:59:39.380Z,12.94
2017-06-02T03:00:20.067Z,12.94
2017-06-02T03:01:00.786Z,12.94
2017-06-02T03:01:41.481Z,12.91
2017-06-02T03:02:22.192Z,12.9
2017-06-02T03:03:02.872Z,12.93
2017-06-02T03:03:43.522Z,12.95
2017-06-02T03:04:25.241Z,12.95
2017-06-02T03:05:05.847Z,13.01
2017-06-02T03:05:47.533Z,12.93
2017-06-02T03:06:28.294Z,12.95
2017-06-02T03:07:08.956Z,12.91
2017-06-02T03:07:49.637Z,12.95
2017-06-02T03:08:31.417Z,12.93
2017-06-02T03:09:12.152Z,13
2017-06-02T03:09:52.790Z,12.91
2017-06-02T03:10:33.592Z,12.9
2017-06-02T03:11:14.316Z,12.97
2017-06-02T03:11:55.008Z,12.94
2017-06-02T03:12:37.641Z,12.98
2017-06-02T03:13:18.315Z,12.95
2017-06-02T03:13:58.902Z,12.97
2017-06-02T03:14:41.621Z,12.95
2017-06-02T03:15:22.338Z,12.9
2017-06-02T03:16:02.896Z,12.93
2017-06-02T03:16:43.634Z,12.95
2017-06-02T03:17:24.288Z,12.91
2017-06-02T03:18:05.016Z,12.93
2017-06-02T03:18:45.699Z,13.01
2017-06-02T03:19:26.451Z,12.95
2017-06-02T03:20:07.090Z,12.93
2017-06-02T03:20:47.747Z,12.98
2017-06-02T03:21:28.523Z,12.94
2017-06-02T03:22:09.058Z,12.93
2017-06-02T03:22:49.798Z,12.98
2017-06-02T03:23:30.533Z,12.98
2017-06-02T03:24:11.285Z,12.94
2017-06-02T03:24:52.050Z,12.97
2017-06-02T03:25:33.865Z,12.94
2017-06-02T03:26:14.629Z,12.93
2017-06-02T03:26:55.365Z,12.9
2017-06-02T03:27:36.028Z,12.98
2017-06-02T03:28:16.634Z,13.03
2017-06-02T03:28:58.385Z,12.97
2017-06-02T03:29:39.005Z,13.05
2017-06-02T03:30:19.657Z,13.05
2017-06-02T03:31:01.267Z,13.03
2017-06-02T03:31:43.011Z,13.08
2017-06-02T03:32:25.821Z,13.11
2017-06-02T03:33:06.472Z,13.15
2017-06-02T03:33:47.127Z,13.23
2017-06-02T03:34:27.914Z,13.3
2017-06-02T03:35:08.632Z,13.35
2017-06-02T03:35:49.392Z,13.31
2017-06-02T03:36:32.087Z,13.3
2017-06-02T03:37:12.643Z,13.44
2017-06-02T03:37:54.350Z,13.41
2017-06-02T03:38:35.148Z,13.53
2017-06-02T03:39:15.899Z,13.5
2017-06-02T03:39:56.623Z,13.46
2017-06-02T03:40:37.387Z,13.47
2017-06-02T03:41:18.041Z,13.52
2017-06-02T03:41:58.710Z,13.57
2017-06-02T03:42:39.456Z,13.59
2017-06-02T03:43:21.107Z,13.54
2017-06-02T03:44:01.772Z,13.53
2017-06-02T03:44:42.436Z,13.54
2017-06-02T03:45:23.108Z,13.65
2017-06-02T03:46:03.734Z,13.63
2017-06-02T03:46:44.389Z,13.67
2017-06-02T03:47:26.063Z,13.78
2017-06-02T03:48:06.729Z,13.86
2017-06-02T03:48:47.401Z,13.74
2017-06-02T03:49:29.161Z,13.78
2017-06-02T03:50:09.933Z,13.92
2017-06-02T03:50:51.602Z,13.96
2017-06-02T03:51:33.341Z,13.95
2017-06-02T03:52:14.034Z,13.96
2017-06-02T03:52:54.790Z,13.99
2017-06-02T03:53:35.635Z,13.95
2017-06-02T03:54:16.707Z,14
2017-06-02T03:54:57.379Z,13.96
2017-06-02T03:55:39.090Z,13.99
2017-06-02T03:56:19.737Z,14.04
2017-06-02T03:57:00.335Z,14.05
2017-06-02T03:57:40.968Z,14.04
2017-06-02T03:58:21.783Z,14.15
2017-06-02T03:59:02.509Z,14.12
2017-06-02T03:59:43.304Z,14.17
2017-06-02T04:00:24.948Z,14.15
2017-06-02T04:01:05.661Z,14.26
2017-06-02T04:01:46.336Z,14.2
2017-06-02T04:02:27.010Z,14.25
2017-06-02T04:03:14.320Z,14.25
2017-06-02T04:03:54.889Z,14.25
2017-06-02T04:04:37.614Z,14.26
2017-06-02T04:05:18.298Z,14.41
2017-06-02T04:05:59.903Z,14.43
2017-06-02T04:06:40.433Z,14.47
2017-06-02T04:07:23.120Z,14.45
2017-06-02T04:08:04.767Z,14.55
2017-06-02T04:08:45.275Z,14.62
2017-06-02T04:09:25.929Z,14.51
2017-06-02T04:10:08.574Z,14.62
2017-06-02T04:10:49.102Z,14.6
2017-06-02T04:11:29.760Z,14.62
2017-06-02T04:12:10.382Z,14.7
2017-06-02T04:12:52.101Z,14.63
2017-06-02T04:13:32.715Z,14.65
2017-06-02T04:14:18.398Z,14.73
2017-06-02T04:14:59.036Z,14.73
2017-06-02T06:10:51.501Z,18.89
2017-06-02T06:11:32.327Z,18.93
2017-06-02T06:12:12.905Z,18.95
2017-06-02T06:12:53.450Z,18.9
2017-06-02T06:13:34.093Z,18.98
2017-06-02T06:14:15.018Z,19.02
2017-06-02T06:14:55.680Z,18.95
2017-06-02T06:15:36.306Z,18.96
2017-06-02T06:16:16.856Z,19.09
2017-06-02T06:16:57.413Z,19.07
2017-06-02T06:17:38.079Z,19.07
2017-06-02T06:18:18.798Z,19.14
2017-06-02T06:18:59.346Z,19.18
2017-06-02T06:19:39.855Z,19.18
2017-06-02T06:20:20.443Z,19.19
2017-06-02T06:21:01.035Z,19.33
2017-06-02T06:21:41.574Z,19.22
2017-06-02T06:22:22.130Z,19.26
2017-06-02T06:23:02.692Z,19.36
2017-06-02T06:23:43.336Z,19.34
2017-06-02T06:24:24.346Z,19.31
2017-06-02T06:25:04.988Z,19.47
2017-06-02T06:25:45.629Z,19.47
2017-06-02T06:26:26.221Z,19.4
2017-06-02T06:27:06.778Z,19.45
2017-06-02T06:27:47.628Z,19.44
2017-06-02T06:28:28.196Z,19.56
2017-06-02T06:29:09.615Z,19.63
2017-06-02T06:29:50.651Z,19.54
2017-06-02T06:30:31.849Z,19.7
2017-06-02T06:31:12.506Z,19.74
2017-06-02T06:31:53.064Z,19.77
2017-06-02T06:32:33.646Z,19.88
2017-06-02T06:33:14.236Z,19.89
2017-06-02T06:33:54.812Z,19.99
2017-06-02T06:34:35.379Z,19.95
2017-06-02T06:35:17.046Z,20.07
2017-06-02T06:35:57.628Z,20.11
2017-06-02T06:36:38.159Z,20.29
2017-06-02T06:37:18.679Z,20.36
2017-06-02T06:37:59.244Z,20.47
2017-06-02T06:38:39.768Z,20.6
2017-06-02T06:39:20.335Z,20.77
2017-06-02T06:40:01.344Z,20.75
2017-06-02T06:40:41.945Z,21.02
2017-06-02T06:41:22.457Z,21.02
2017-06-02T06:42:03.086Z,21.12
2017-06-02T06:42:43.642Z,21.25
2017-06-02T06:43:24.247Z,21.33
2017-06-02T06:44:04.790Z,21.45
2017-06-02T06:44:46.432Z,21.58
2017-06-02T06:45:27.022Z,21.67
2017-06-02T06:46:07.668Z,21.76
2017-06-02T06:46:48.223Z,21.89
2017-06-02T06:47:28.882Z,21.99
2017-06-02T06:48:11.494Z,22.04
2017-06-02T06:48:52.140Z,22.13
2017-06-02T06:49:32.978Z,22.28
2017-06-02T06:50:13.515Z,22.35
2017-06-02T06:50:55.107Z,22.48
2017-06-02T06:51:35.653Z,22.55
2017-06-02T06:52:16.285Z,22.7
2017-06-02T06:52:56.992Z,22.85
2017-06-02T06:53:37.630Z,22.96
2017-06-02T06:54:18.187Z,22.98
2017-06-02T06:54:58.769Z,23.03
2017-06-02T06:55:39.415Z,23.08
2017-06-02T06:56:20.997Z,23.12
2017-06-02T06:57:01.542Z,23.23
2017-06-02T06:57:43.111Z,23.25
2017-06-02T06:58:24.705Z,23.39
2017-06-02T06:59:05.243Z,23.43
2017-06-02T06:59:45.834Z,23.48
2017-06-02T07:00:27.444Z,23.51
2017-06-02T07:01:07.995Z,23.51
2017-06-02T07:01:48.572Z,23.54
2017-06-02T07:02:29.164Z,23.54
2017-06-02T07:03:09.766Z,23.61
2017-06-02T07:03:52.392Z,23.62
2017-06-02T07:04:33.053Z,23.62
2017-06-02T07:05:13.607Z,23.62
2017-06-02T07:05:54.158Z,23.69
2017-06-02T07:06:35.737Z,23.73
2017-06-02T07:07:16.281Z,23.68
2017-06-02T07:07:56.883Z,23.66
2017-06-02T07:08:37.438Z,23.68
2017-06-02T07:09:17.956Z,23.65
2017-06-02T07:09:58.559Z,23.63
2017-06-02T07:10:39.204Z,23.63
2017-06-02T07:11:19.798Z,23.68
2017-06-02T07:12:00.310Z,23.69
2017-06-02T07:12:40.826Z,23.77
2017-06-02T07:13:21.408Z,23.66
2017-06-02T07:14:02.000Z,23.63
2017-06-02T07:14:42.534Z,23.68
2017-06-02T07:15:23.157Z,23.66
2017-06-02T07:16:03.756Z,23.73
2017-06-02T07:16:45.642Z,23.66
2017-06-02T07:17:26.167Z,23.65
2017-06-02T07:18:06.791Z,23.65
2017-06-02T07:18:47.371Z,23.63
2017-06-02T07:19:28.017Z,23.61
2017-06-02T07:20:08.672Z,23.62
2017-06-02T07:20:49.213Z,23.59
2017-06-02T07:21:29.836Z,23.47
2017-06-02T07:22:10.386Z,23.5
2017-06-02T07:22:50.914Z,23.56
2017-06-02T07:23:31.522Z,23.5
2017-06-02T07:24:12.104Z,23.61
2017-06-02T07:24:52.704Z,23.56
2017-06-02T07:25:33.238Z,23.48
2017-06-02T07:26:14.860Z,23.5
2017-06-02T07:26:55.390Z,23.61
2017-06-02T11:17:42.167Z,28.32
2017-06-02T11:18:23.189Z,28.47
2017-06-02T11:19:03.986Z,28.42
2017-06-02T11:19:44.645Z,28.48
2017-06-02T11:20:25.650Z,28.52
2017-06-02T11:21:06.490Z,28.52
2017-06-02T11:21:47.173Z,28.66
2017-06-02T11:22:27.880Z,28.64
2017-06-02T11:23:08.414Z,28.67
2017-06-02T11:23:49.000Z,28.74
2017-06-02T11:24:29.731Z,28.64
2017-06-02T11:25:10.303Z,28.72
2017-06-02T11:25:50.956Z,28.72
2017-06-02T11:26:31.556Z,28.69
2017-06-02T11:27:12.454Z,28.69
2017-06-02T11:27:53.115Z,28.66
2017-06-02T11:28:33.731Z,28.62
2017-06-02T11:29:14.364Z,28.59
2017-06-02T11:29:54.989Z,28.51
2017-06-02T11:30:35.599Z,28.54
2017-06-02T11:31:16.137Z,28.45
2017-06-02T11:31:56.663Z,28.35
2017-06-02T11:32:37.301Z,28.38
2017-06-02T11:33:17.821Z,28.32
2017-06-02T11:33:58.370Z,28.27
2017-06-02T11:34:38.928Z,28.26
2017-06-02T11:35:19.478Z,28.26
2017-06-02T11:36:00.121Z,28.37
2017-06-02T11:36:40.650Z,28.3
2017-06-02T11:37:21.235Z,15.66
2017-06-02T11:38:01.794Z,28.23
2017-06-02T11:38:42.631Z,28.2
2017-06-02T11:39:23.192Z,28.23
2017-06-02T11:40:04.035Z,28.22
2017-06-02T11:42:02.339Z,28
2017-06-02T11:42:43.162Z,16.6
2017-06-02T11:43:24.117Z,27.89
2017-06-02T11:44:04.973Z,27.85
2017-06-02T11:44:45.932Z,27.74
2017-06-02T11:45:26.689Z,27.7
2017-06-02T11:46:07.748Z,27.74
2017-06-02T11:46:48.496Z,27.85
2017-06-02T11:47:29.110Z,27.8
2017-06-02T11:48:09.708Z,27.8
2017-06-02T11:48:50.492Z,27.96
2017-06-02T11:49:32.294Z,27.96
2017-06-02T11:50:12.963Z,28.02
2017-06-02T11:50:54.866Z,28.14
2017-06-02T11:51:35.476Z,28.14
2017-06-02T11:52:16.553Z,28.23
2017-06-02T11:52:57.069Z,28.3
2017-06-02T11:53:37.609Z,28.44
2017-06-02T11:54:18.336Z,28.67
2017-06-02T11:54:58.976Z,28.64
2017-06-02T11:55:40.017Z,28.79
2017-06-02T11:56:20.604Z,28.89
2017-06-02T11:57:01.268Z,29.04
2017-06-02T11:57:41.928Z,29.07
2017-06-02T11:58:22.885Z,29.17
2017-06-02T11:59:03.679Z,29.22
2017-06-02T11:59:44.426Z,29.22
2017-06-02T12:00:25.076Z,29.19
2017-06-02T12:01:05.764Z,29.17
2017-06-02T12:01:46.369Z,29.17
2017-06-02T12:02:26.957Z,29.19
2017-06-02T12:03:07.621Z,29.23
2017-06-02T12:03:48.386Z,29.26
2017-06-02T12:04:28.965Z,29.31
2017-06-02T12:05:09.722Z,29.44
2017-06-02T12:05:50.370Z,29.49
2017-06-02T12:06:30.929Z,29.63
2017-06-02T12:07:11.781Z,29.65
2017-06-02T12:07:52.650Z,29.68
2017-06-02T12:08:33.442Z,29.73
2017-06-02T12:09:14.229Z,29.72
2017-06-02T12:09:54.941Z,29.82
2017-06-02T12:10:35.875Z,29.84
2017-06-02T12:11:17.481Z,29.87
2017-06-02T12:11:58.569Z,29.91
2017-06-02T12:12:39.606Z,29.9
2017-06-02T12:13:20.256Z,29.93
2017-06-02T12:14:00.972Z,29.98
2017-06-02T12:14:41.785Z,30.05
2017-06-02T12:15:22.454Z,30.1
2017-06-02T12:16:03.381Z,30.12
2017-06-02T12:16:44.101Z,30.21
2017-06-02T12:17:24.654Z,30.24
2017-06-02T12:18:05.432Z,30.24
2017-06-02T12:18:46.100Z,30.24
2017-06-02T12:19:26.779Z,30.35
2017-06-02T12:20:07.528Z,30.37
2017-06-02T12:20:48.059Z,30.47
2017-06-02T12:21:28.805Z,30.53
2017-06-02T12:22:09.695Z,30.53
2017-06-02T12:22:50.387Z,30.59
2017-06-02T12:23:30.932Z,30.62
2017-06-02T12:24:11.697Z,30.5
2017-06-02T12:24:52.381Z,30.47
2017-06-02T12:25:32.850Z,30.34
2017-06-02T12:26:13.684Z,30.19
2017-06-02T12:26:54.406Z,30.21
2017-06-02T12:27:35.124Z,30.25
2017-06-02T12:28:15.640Z,30.1
2017-06-02T12:28:56.395Z,30.13
2017-06-02T12:29:37.010Z,30.13
2017-06-02T12:30:17.550Z,30.09
2017-06-02T12:30:58.241Z,30.12
2017-06-02T12:31:38.795Z,30.08
2017-06-02T12:32:19.574Z,29.95
2017-06-02T12:33:00.255Z,29.95
2017-06-02T12:33:41.847Z,29.98
2017-06-02T12:34:22.720Z,29.86
2017-06-02T12:35:03.993Z,29.78
2017-06-02T12:35:44.557Z,29.78
2017-06-02T12:36:25.265Z,29.63
2017-06-02T12:37:06.093Z,29.6
2017-06-02T12:37:46.832Z,29.65
2017-06-02T12:38:27.381Z,29.61
2017-06-02T12:39:08.747Z,29.68
2017-06-02T12:39:49.577Z,29.73
2017-06-02T12:40:30.849Z,29.87
2017-06-02T12:41:11.491Z,29.9
2017-06-02T12:41:52.027Z,29.91
2017-06-02T12:42:32.709Z,30.02
2017-06-02T12:43:13.238Z,29.97
2017-06-02T12:43:53.799Z,29.97
2017-06-02T12:44:34.335Z,30.05
2017-06-02T12:45:15.301Z,30.03
2017-06-02T12:45:55.889Z,30.02
2017-06-02T12:46:36.824Z,30.05
2017-06-02T12:47:17.564Z,30.02
2017-06-02T12:47:58.128Z,30.06
2017-06-02T12:48:38.839Z,30.13
2017-06-02T12:49:19.553Z,30.12
2017-06-02T12:50:00.093Z,30.15
2017-06-02T12:50:40.742Z,30.1
2017-06-02T12:51:21.294Z,30.15
2017-06-02T12:52:02.013Z,30
2017-06-02T12:52:42.618Z,29.87
2017-06-02T12:53:23.313Z,29.84
2017-06-02T12:54:03.890Z,29.71
2017-06-02T12:54:44.623Z,29.69
2017-06-02T12:55:25.263Z,29.72
2017-06-02T12:56:05.941Z,29.66
2017-06-02T12:56:46.621Z,29.63
2017-06-02T12:57:27.290Z,29.68
2017-06-02T12:58:08.137Z,29.61
2017-06-02T12:58:48.656Z,29.63
2017-06-02T12:59:29.378Z,29.68
2017-06-02T13:00:09.913Z,29.63
2017-06-02T13:00:50.769Z,29.78
2017-06-02T13:01:31.398Z,29.9
2017-06-02T13:02:11.935Z,29.79
2017-06-02T13:02:52.597Z,29.84
2017-06-02T13:03:33.116Z,29.91
2017-06-02T13:04:13.900Z,29.97
2017-06-02T13:04:54.674Z,30.03
2017-06-02T13:05:35.368Z,30
2017-06-02T13:06:15.918Z,30.03
2017-06-02T13:06:56.713Z,30.06
2017-06-02T13:07:37.341Z,30.06
2017-06-02T13:08:18.109Z,30.1
2017-06-02T13:08:58.941Z,30.06
2017-06-02T13:09:39.896Z,29.98
2017-06-02T13:10:20.432Z,29.87
2017-06-02T13:11:01.064Z,29.86
2017-06-02T13:11:42.153Z,29.75
2017-06-02T13:12:22.828Z,29.79
2017-06-02T13:13:03.573Z,29.66
2017-06-02T13:13:44.418Z,29.72
2017-06-02T13:14:25.107Z,29.71
2017-06-02T13:15:06.096Z,29.57
2017-06-02T13:15:46.834Z,29.54
2017-06-02T13:16:27.796Z,29.54
2017-06-02T13:17:10.127Z,29.53
2017-06-02T13:17:50.978Z,29.42
2017-06-02T13:18:31.616Z,29.34
2017-06-02T13:19:12.318Z,29.27
2017-06-02T13:19:53.103Z,29.32
2017-06-02T13:20:34.071Z,29.27
2017-06-02T13:21:14.814Z,29.34
2017-06-02T13:21:56.533Z,29.36
2017-06-02T13:22:37.177Z,29.29
2017-06-02T13:23:17.845Z,29.2
2017-06-02T13:23:58.485Z,29.13
2017-06-02T13:24:39.131Z,29.1
2017-06-02T13:25:19.792Z,29.2
2017-06-02T13:26:00.668Z,29.1
2017-06-02T13:26:41.331Z,29.12
2017-06-02T13:27:21.995Z,29.07
2017-06-02T13:28:02.714Z,29.1
2017-06-02T13:28:43.360Z,28.93
2017-06-02T13:29:23.945Z,28.97
2017-06-02T13:30:04.718Z,28.93
2017-06-02T13:30:45.443Z,28.85
2017-06-02T13:31:26.105Z,28.82
2017-06-02T13:32:06.832Z,28.78
2017-06-02T13:32:47.535Z,28.85
2017-06-02T13:33:28.216Z,28.85
2017-06-02T13:34:08.759Z,28.82
2017-06-02T13:34:49.483Z,28.84
2017-06-02T13:35:30.179Z,28.79
2017-06-02T13:36:10.714Z,28.86
2017-06-02T13:36:51.424Z,28.88
2017-06-02T13:37:32.100Z,28.81
2017-06-02T13:38:12.805Z,28.79
2017-06-02T13:38:53.466Z,28.88
2017-06-02T13:39:34.016Z,28.91
2017-06-02T13:40:14.681Z,28.94
2017-06-02T13:40:55.323Z,29.02
2017-06-02T13:41:36.028Z,29.12
2017-06-02T13:42:16.708Z,29.05
2017-06-02T13:42:57.264Z,28.98
2017-06-02T13:43:38.022Z,28.88
2017-06-02T13:44:18.666Z,28.89
2017-06-02T13:44:59.202Z,29.02
2017-06-02T13:45:39.963Z,29.01
2017-06-02T13:46:20.662Z,29.02
2017-06-02T13:47:01.165Z,28.91
2017-06-02T13:47:41.750Z,29.08
2017-06-02T13:48:22.582Z,29.22
2017-06-02T13:49:04.402Z,29.1
2017-06-02T13:49:45.047Z,29.19
2017-06-02T13:50:25.703Z,29.24
2017-06-02T13:51:06.357Z,29.27
2017-06-02T13:51:47.025Z,29.32
2017-06-02T13:52:27.688Z,29.44
2017-06-02T13:53:08.399Z,29.5
2017-06-02T13:53:48.956Z,29.61
2017-06-02T13:54:29.620Z,29.57
2017-06-02T13:55:11.679Z,29.71
2017-06-02T13:55:52.228Z,29.6
2017-06-02T13:56:32.822Z,29.71
2017-06-02T13:57:13.562Z,29.61
2017-06-02T13:57:54.217Z,29.5
2017-06-02T13:58:35.415Z,29.57
2017-06-02T13:59:16.138Z,29.53
2017-06-02T13:59:56.836Z,29.54
2017-06-02T14:00:37.535Z,29.5
2017-06-02T14:01:18.173Z,29.56
2017-06-02T14:01:59.181Z,29.56
2017-06-02T14:02:39.912Z,29.5
2017-06-02T14:03:20.560Z,29.51
2017-06-02T14:04:01.216Z,29.54
2017-06-02T14:04:42.892Z,29.54
2017-06-02T14:05:28.350Z,29.72
2017-06-02T14:06:10.857Z,29.75
2017-06-02T14:06:51.585Z,29.81
2017-06-02T14:07:32.314Z,29.79
2017-06-02T14:08:13.466Z,29.82
2017-06-02T14:08:54.234Z,29.79
2017-06-02T14:09:34.917Z,29.76
2017-06-02T14:10:15.639Z,29.76
2017-06-02T14:10:56.616Z,29.76
2017-06-02T14:11:37.104Z,29.75
2017-06-02T14:12:17.786Z,29.86
2017-06-02T14:12:59.440Z,29.79
2017-06-02T14:13:40.093Z,29.91
2017-06-02T14:14:20.739Z,29.94
2017-06-02T14:15:01.384Z,29.95
2017-06-02T14:15:42.046Z,30.08
2017-06-02T14:16:22.760Z,30.13
2017-06-02T14:17:03.455Z,30.19
2017-06-02T14:17:44.210Z,30.23
2017-06-02T14:18:24.740Z,30.31
2017-06-02T14:19:05.417Z,30.28
2017-06-02T14:19:46.126Z,30.39
2017-06-02T14:20:27.927Z,30.32
2017-06-02T14:21:08.704Z,30.31
2017-06-02T14:21:52.337Z,30.34
2017-06-02T14:22:34.030Z,30.25
2017-06-02T14:23:14.727Z,30.24
2017-06-02T14:23:55.295Z,30.24
2017-06-02T14:24:35.963Z,30.3
2017-06-02T14:25:16.748Z,30.3
2017-06-02T14:25:59.803Z,30.34
2017-06-02T14:26:40.334Z,30.4
2017-06-02T14:27:21.133Z,30.35
2017-06-02T14:28:01.826Z,30.24
2017-06-02T14:28:42.512Z,30.24
2017-06-02T14:29:23.034Z,30.08
2017-06-02T14:30:04.776Z,29.95
2017-06-02T14:30:45.469Z,30
2017-06-02T14:31:26.160Z,29.88
2017-06-02T14:32:06.690Z,29.82
2017-06-02T14:32:48.438Z,29.71
2017-06-02T14:33:30.077Z,29.78
2017-06-02T14:34:10.616Z,29.86
2017-06-02T14:34:51.289Z,29.78
2017-06-02T14:35:36.748Z,29.79
2017-06-02T14:36:17.386Z,29.82
2017-06-02T14:36:58.052Z,29.75
2017-06-02T14:37:40.687Z,29.6
2017-06-02T14:38:22.331Z,29.57
2017-06-02T14:39:02.975Z,29.49
2017-06-02T14:39:43.632Z,29.44
2017-06-02T14:40:24.282Z,29.38
2017-06-02T14:41:05.043Z,29.36
2017-06-02T14:41:45.802Z,29.38
2017-06-02T14:42:28.579Z,29.35
2017-06-02T14:43:21.814Z,29.32
2017-06-02T14:44:03.425Z,29.2
2017-06-02T14:44:43.956Z,29.23
2017-06-02T14:45:24.546Z,29.23
2017-06-02T14:46:06.178Z,29.24
2017-06-02T14:46:47.776Z,29.2
2017-06-02T14:47:28.437Z,29.24
2017-06-02T14:48:09.087Z,29.38
2017-06-02T14:48:49.740Z,29.49
2017-06-02T14:49:30.400Z,29.49
2017-06-02T14:50:11.040Z,29.57
2017-06-02T14:50:51.692Z,29.59
2017-06-02T14:51:32.353Z,29.57
2017-06-02T14:52:12.931Z,29.56
2017-06-02T14:52:54.601Z,29.69
2017-06-02T14:53:35.189Z,29.69
2017-06-02T14:54:16.808Z,29.78
2017-06-02T14:54:57.342Z,29.79
2017-06-02T14:55:37.929Z,29.86
2017-06-02T14:56:18.471Z,29.87
2017-06-02T14:56:59.074Z,29.97
2017-06-02T14:57:39.600Z,29.95
2017-06-02T14:58:20.263Z,29.97
2017-06-02T14:59:01.855Z,30.02
2017-06-02T14:59:42.442Z,30.08
2017-06-02T15:00:22.964Z,30.15
2017-06-02T15:01:03.567Z,30.06
2017-06-02T15:01:44.162Z,30.05
2017-06-02T15:02:25.772Z,30.12
2017-06-02T15:03:06.303Z,30.05
2017-06-02T15:03:47.909Z,29.97
2017-06-02T15:04:28.573Z,29.91
2017-06-02T15:05:09.226Z,29.88
2017-06-02T15:05:49.806Z,29.87
2017-06-02T15:06:31.382Z,29.9
2017-06-02T15:07:12.082Z,29.9
2017-06-02T15:07:52.618Z,29.95
2017-06-02T15:08:33.210Z,30
2017-06-02T15:09:14.824Z,30
2017-06-02T15:09:55.367Z,30.06
2017-06-02T15:10:35.909Z,30.21
2017-06-02T15:11:16.448Z,30.35
2017-06-02T15:11:57.089Z,30.46
2017-06-02T15:12:37.626Z,30.47
2017-06-02T15:13:18.154Z,30.57
2017-06-02T15:13:58.743Z,30.7
2017-06-02T15:14:39.432Z,30.61
2017-06-02T15:15:20.129Z,30.7
2017-06-02T15:16:01.491Z,30.63
2017-06-02T15:16:43.088Z,30.62
2017-06-02T15:17:23.821Z,30.59
2017-06-02T15:18:04.469Z,30.46
2017-06-02T15:18:44.999Z,30.34
2017-06-02T15:19:25.598Z,30.25
2017-06-02T15:20:06.289Z,30.08
2017-06-02T15:20:46.931Z,30
2017-06-02T15:21:27.461Z,29.86
2017-06-02T15:22:08.122Z,29.84
2017-06-02T15:22:48.652Z,29.79
2017-06-02T15:23:29.284Z,29.69
2017-06-02T15:24:09.895Z,29.66
2017-06-02T15:24:50.596Z,29.6
2017-06-02T15:25:31.259Z,29.61
2017-06-02T15:26:11.858Z,29.6
2017-06-02T15:26:52.512Z,29.6
2017-06-02T15:27:33.071Z,29.59
2017-06-02T15:28:13.670Z,29.56
2017-06-02T15:28:54.326Z,29.49
2017-06-02T15:29:36.008Z,29.42
2017-06-02T15:30:16.549Z,29.39
2017-06-02T15:30:57.131Z,29.44
2017-06-02T15:31:37.805Z,29.39
2017-06-02T15:32:18.347Z,29.29
2017-06-02T15:32:58.970Z,29.2
2017-06-02T15:33:39.606Z,29.23
2017-06-02T15:34:20.142Z,29.2
2017-06-02T15:35:00.826Z,29.22
2017-06-02T15:35:41.452Z,29.27
2017-06-02T15:36:21.979Z,29.26
2017-06-02T15:37:02.573Z,29.27
2017-06-02T15:37:43.307Z,29.31
2017-06-02T15:38:23.865Z,29.38
2017-06-02T15:39:04.532Z,29.45
2017-06-02T15:39:45.221Z,29.54
2017-06-02T15:40:25.809Z,29.56
2017-06-02T15:41:06.347Z,29.66
2017-06-02T15:41:47.007Z,29.63
2017-06-02T15:42:27.659Z,29.6
2017-06-02T15:43:08.295Z,29.73
2017-06-02T15:43:50.870Z,29.71
2017-06-02T15:44:31.527Z,29.75
2017-06-02T15:45:12.190Z,29.79
2017-06-02T15:45:52.850Z,29.86
2017-06-02T15:46:33.587Z,29.84
2017-06-02T15:47:14.604Z,29.86
2017-06-02T15:47:55.270Z,29.88
2017-06-02T15:48:35.965Z,29.93
2017-06-02T15:49:16.558Z,29.81
2017-06-02T15:49:57.263Z,29.82
2017-06-02T15:50:37.884Z,29.81
2017-06-02T15:51:18.524Z,29.75
2017-06-02T15:51:59.090Z,29.66
2017-06-02T15:52:39.773Z,29.6
2017-06-02T15:53:20.610Z,29.53
2017-06-02T15:54:01.288Z,29.49
2017-06-02T15:54:41.951Z,29.49
2017-06-02T15:55:22.652Z,29.45
2017-06-02T15:56:03.246Z,29.42
2017-06-02T15:56:45.133Z,29.35
2017-06-02T15:57:25.824Z,29.42
2017-06-02T15:58:06.375Z,29.41
2017-06-02T15:58:46.948Z,29.41
2017-06-02T15:59:27.534Z,29.44
2017-06-02T16:00:08.187Z,29.44
2017-06-02T16:00:48.961Z,29.5
2017-06-02T16:01:29.570Z,29.49
2017-06-02T16:02:10.130Z,29.36
2017-06-02T16:02:50.753Z,29.39
2017-06-02T16:03:31.316Z,29.49
2017-06-02T16:04:11.985Z,29.53
2017-06-02T16:04:52.613Z,29.65
2017-06-02T16:05:33.269Z,29.61
2017-06-02T16:06:13.947Z,29.69
2017-06-02T16:06:55.051Z,29.69
2017-06-02T16:07:35.586Z,29.73
2017-06-02T16:08:16.107Z,29.78
2017-06-02T16:08:56.855Z,29.86
2017-06-02T16:09:37.392Z,29.91
2017-06-02T16:10:18.044Z,29.93
2017-06-02T16:10:58.853Z,29.95
2017-06-02T16:11:39.490Z,29.94
2017-06-02T16:12:20.243Z,29.88
2017-06-02T16:13:00.778Z,29.91
2017-06-02T16:13:41.460Z,29.9
2017-06-02T16:14:22.047Z,29.86
2017-06-02T16:15:03.011Z,29.86
2017-06-02T16:15:43.801Z,29.86
2017-06-02T16:16:25.422Z,29.9
2017-06-02T16:17:06.095Z,29.86
2017-06-02T16:17:46.844Z,29.9
2017-06-02T16:18:27.360Z,29.91
2017-06-02T16:19:08.046Z,29.95
2017-06-02T16:19:48.736Z,29.91
2017-06-02T16:20:29.533Z,29.97
2017-06-02T16:21:10.346Z,29.86
2017-06-02T16:21:51.031Z,29.84
2017-06-02T16:22:31.570Z,29.9
2017-06-02T16:23:12.111Z,29.87
2017-06-02T16:23:52.776Z,29.69
2017-06-02T16:24:33.318Z,29.71
2017-06-02T16:25:13.996Z,29.66
2017-06-02T16:25:54.639Z,29.56
2017-06-02T16:26:35.247Z,29.53
2017-06-02T16:27:15.763Z,29.57
2017-06-02T16:27:56.297Z,29.54
2017-06-02T16:28:36.820Z,29.59
2017-06-02T16:29:17.349Z,29.49
2017-06-02T16:29:58.018Z,29.49
2017-06-02T16:30:38.548Z,29.39
2017-06-02T16:31:19.221Z,29.44
2017-06-02T16:31:59.732Z,29.49
2017-06-02T16:32:40.395Z,29.5
2017-06-02T16:33:20.920Z,29.5
2017-06-02T16:34:01.449Z,29.53
2017-06-02T16:34:41.976Z,29.57
2017-06-02T16:35:22.495Z,29.56
2017-06-02T16:36:03.185Z,29.63
2017-06-02T16:36:43.805Z,29.57
2017-06-02T16:37:24.327Z,29.61
2017-06-02T16:38:04.914Z,29.6
2017-06-02T16:38:45.583Z,29.6
2017-06-02T16:39:26.245Z,29.63